Home > Products > Valid Products > TAF

000
FTUS42 KILM 011859 AAB
TAFFLO
TAF AMD
KFLO 011859Z 0119/0218 19006KT P6SM VCSH SCT015 BKN100
     FM012000 19007KT P6SM VCTS SCT025CB BKN100
     FM020000 21006KT P6SM SCT015 BKN050
     FM020500 23005KT P6SM VCSH BKN050
     FM021200 23007KT P6SM VCTS SCT035CB BKN060=



000
FTUS42 KILM 011857 AAA
TAFLBT
TAF AMD
KLBT 011857Z 0119/0218 19007KT P6SM VCSH SCT015 BKN090
     FM012000 20007KT P6SM VCTS SCT035CB BKN100
     FM020000 21005KT P6SM SCT015 BKN050
     FM020500 22005KT P6SM VCSH BKN050
     FM021200 24007KT P6SM VCSH SCT035 BKN060=



000
FTUS42 KILM 011820 AAB
TAFILM
TAF AMD
KILM 011820Z 0118/0218 20012KT P6SM VCSH SCT030 BKN060
      TEMPO 0118/0122 VRB08KT 5SM -TSRA BR BKN025CB
     FM012200 20010KT P6SM SCT080 BKN250
     FM020500 21006KT P6SM VCSH SCT050 BKN150
     FM021300 22008KT P6SM VCTS SCT040CB BKN080=



000
FTUS42 KILM 011753 AAA
TAFFLO
TAF AMD
KFLO 011753Z 0118/0218 19006KT 5SM -TSRA BR SCT008 OVC025CB
      TEMPO 0119/0120 VRB10KT 1SM TSRA BR BKN015CB OVC030
     FM012000 19007KT P6SM VCSH SCT025 BKN100
     FM020000 21006KT P6SM SCT015 BKN050
     FM020500 23005KT P6SM VCSH BKN050
     FM021200 23007KT P6SM VCTS SCT035CB BKN060=



000
FTUS42 KILM 011753 AAA
TAFFLO
TAF AMD
KFLO 011753Z 0118/0218 19006KT 5SM -TSRA BR SCT008 OVC025CB
      TEMPO 0119/0120 VRB10KT 1SM TSRA BR BKN015CB OVC030
     FM012000 19007KT P6SM VCSH SCT025 BKN100
     FM020000 21006KT P6SM SCT015 BKN050
     FM020500 23005KT P6SM VCSH BKN050
     FM021200 23007KT P6SM VCTS SCT035CB BKN060=



000
FTUS42 KILM 011751 CCA
TAFLBT
TAF COR
KLBT 011751Z 0118/0218 VRB08G14KT 4SM -SHRA BR BKN009 BKN035 OVC100
     FM011900 19008KT P6SM VCTS SCT030CB BKN050
      TEMPO 0119/0120 VRB10KT 5SM -SHRA BR BKN025 OVC040
     FM012000 17007KT P6SM VCSH SCT025 BKN100
     FM020000 21005KT P6SM SCT015 BKN050
     FM020500 22005KT P6SM VCSH BKN050
     FM021200 24007KT P6SM VCSH SCT035 BKN060=



000
FTUS42 KILM 011749 CCA
TAFCRE
TAF COR
KCRE 011749Z 0118/0218 17010KT P6SM VCTS SCT025CB OVC060
      TEMPO 0118/0122 VRB08KT 3SM -TSRA BR SCT015 BKN025CB
     FM012200 20013KT P6SM SCT080 BKN250
     FM020500 22009KT P6SM VCSH SCT050 BKN150
     FM021200 23006KT P6SM VCTS SCT040CB BKN080=



000
FTUS42 KILM 011720
TAFILM
TAF
KILM 011720Z 0118/0218 17010KT P6SM SCT030 BKN080
      TEMPO 0119/0122 VRB08KT 5SM -SHRA BR BKN025
     FM012200 20010KT P6SM SCT080 BKN250
     FM020500 21006KT P6SM VCSH SCT050 BKN150
     FM021300 22008KT P6SM VCTS SCT040CB BKN080=



000
FTUS42 KILM 011720
TAFMYR
TAF
KMYR 011720Z 0118/0218 17010KT P6SM SCT025 OVC060
      TEMPO 0119/0122 VRB08KT 4SM -TSRA BR BKN025CB
     FM012200 19013KT P6SM SCT060 BKN250
     FM020500 22008KT P6SM VCSH SCT050 BKN150
     FM021200 23006KT P6SM VCTS SCT040CB BKN080=



000
FTUS42 KILM 011720
TAFCRE
TAF
KCRE 011720Z 0118/0218 17010KT P6SM SCT030 OVC080
      TEMPO 0119/0122 VRB08KT 4SM -TSRA BR BKN025CB
     FM012200 20013KT P6SM SCT080 BKN250
     FM020500 22009KT P6SM VCSH SCT050 BKN150
     FM021200 23006KT P6SM VCTS SCT040CB BKN080=



000
FTUS42 KILM 011720
TAFLBT
TAF
KLBT 011720Z 0118/0218 VRB08G14KT 5SM -SHRA BR SCT012 BKN035 OVC100
     FM011900 19008KT P6SM VCTS SCT030CB BKN050
      TEMPO 0119/0120 VRB10KT 5SM -SHRA BR BKN025 OVC040
     FM012000 17007KT P6SM VCSH SCT025 BKN100
     FM020000 21005KT P6SM SCT015 BKN050
     FM020500 22005KT P6SM VCSH BKN050
     FM021200 24007KT P6SM VCSH SCT035 BKN060=



000
FTUS42 KILM 011720
TAFFLO
TAF
KFLO 011720Z 0118/0218 VRB08G15KT 5SM -TSRA BR SCT008 BKN015CB
      OVC035
     FM011900 19008KT P6SM VCTS SCT030CB BKN050
      TEMPO 0119/0120 VRB10KT 4SM -TSRA BR BKN020CB OVC040
     FM012000 19007KT P6SM VCSH SCT025 BKN100
     FM020000 21006KT P6SM SCT015 BKN050
     FM020500 23005KT P6SM VCSH BKN050
     FM021200 23007KT P6SM VCTS SCT035CB BKN060=



000
FTUS42 KILM 011720
TAFILM
TAF
KILM 011720Z 0118/0218 17010KT P6SM SCT030 BKN080
      TEMPO 0119/0122 VRB08KT 5SM -SHRA BR BKN025
     FM012200 20010KT P6SM SCT080 BKN250
     FM020500 21006KT P6SM VCSH SCT050 BKN150
     FM021300 22008KT P6SM VCTS SCT040CB BKN080=



000
FTUS42 KILM 011720
TAFMYR
TAF
KMYR 011720Z 0118/0218 17010KT P6SM SCT025 OVC060
      TEMPO 0119/0122 VRB08KT 4SM -TSRA BR BKN025CB
     FM012200 19013KT P6SM SCT060 BKN250
     FM020500 22008KT P6SM VCSH SCT050 BKN150
     FM021200 23006KT P6SM VCTS SCT040CB BKN080=



000
FTUS42 KILM 011720
TAFCRE
TAF
KCRE 011720Z 0118/0218 17010KT P6SM SCT030 OVC080
      TEMPO 0119/0122 VRB08KT 4SM -TSRA BR BKN025CB
     FM012200 20013KT P6SM SCT080 BKN250
     FM020500 22009KT P6SM VCSH SCT050 BKN150
     FM021200 23006KT P6SM VCTS SCT040CB BKN080=



000
FTUS42 KILM 011720
TAFLBT
TAF
KLBT 011720Z 0118/0218 VRB08G14KT 5SM -SHRA BR SCT012 BKN035 OVC100
     FM011900 19008KT P6SM VCTS SCT030CB BKN050
      TEMPO 0119/0120 VRB10KT 5SM -SHRA BR BKN025 OVC040
     FM012000 17007KT P6SM VCSH SCT025 BKN100
     FM020000 21005KT P6SM SCT015 BKN050
     FM020500 22005KT P6SM VCSH BKN050
     FM021200 24007KT P6SM VCSH SCT035 BKN060=



000
FTUS42 KILM 011720
TAFFLO
TAF
KFLO 011720Z 0118/0218 VRB08G15KT 5SM -TSRA BR SCT008 BKN015CB
      OVC035
     FM011900 19008KT P6SM VCTS SCT030CB BKN050
      TEMPO 0119/0120 VRB10KT 4SM -TSRA BR BKN020CB OVC040
     FM012000 19007KT P6SM VCSH SCT025 BKN100
     FM020000 21006KT P6SM SCT015 BKN050
     FM020500 23005KT P6SM VCSH BKN050
     FM021200 23007KT P6SM VCTS SCT035CB BKN060=



000
FTUS42 KILM 011658 AAB
TAFCRE
TAF AMD
KCRE 011658Z 0117/0212 18013KT P6SM VCSH SCT025 BKN050
      TEMPO 0117/0120 4SM -TSRA BR SCT025CB BKN030
     FM020000 21008KT P6SM SCT060 SCT100 BKN250=



000
FTUS42 KILM 011602 AAA
TAFCRE
TAF AMD
KCRE 011602Z 0116/0212 18013KT P6SM VCSH SCT025 BKN050
      TEMPO 0117/0120 4SM -TSRA BR SCT025CB BKN035
     FM020000 21008KT P6SM SCT060 SCT100 BKN250=



000
FTUS42 KILM 011601 AAA
TAFMYR
TAF AMD
KMYR 011601Z 0116/0212 18013KT P6SM VCSH SCT025 BKN045
     FM020000 21008KT P6SM SCT060 SCT100 BKN250=



000
FTUS42 KILM 011600 AAC
TAFLBT
TAF AMD
KLBT 011600Z 0116/0212 15005KT P6SM VCTS SCT025CB BKN045
      TEMPO 0116/0119 VRB10G17KT 4SM -TSRA BR BKN030CB
     FM011900 19012KT P6SM VCSH BKN035
     FM012200 19008KT P6SM SCT070 BKN250
     FM020300 21006KT P6SM VCSH SCT015 BKN050=



000
FTUS42 KILM 011558 AAB
TAFFLO
TAF AMD
KFLO 011558Z 0116/0212 17009KT P6SM VCTS SCT025CB BKN070
      TEMPO 0116/0118 VRB10G17KT 4SM -TSRA BR BKN025CB OVC050
     FM011800 20012KT P6SM BKN035
     FM020000 19008KT P6SM SCT070 BKN250
     FM020500 21006KT P6SM VCSH SCT015 BKN050=



000
FTUS42 KILM 011558 AAB
TAFFLO
TAF AMD
KFLO 011558Z 0116/0212 17009KT P6SM VCTS SCT025CB BKN070
      TEMPO 0116/0118 VRB10G17KT 4SM -TSRA BR BKN025CB OVC050
     FM011800 20012KT P6SM BKN035
     FM020000 19008KT P6SM SCT070 BKN250
     FM020500 21006KT P6SM VCSH SCT015 BKN050=



000
FTUS42 KILM 011425 AAB
TAFLBT
TAF AMD
KLBT 011425Z 0114/0212 17007KT P6SM SCT025 BKN060
      TEMPO 0114/0116 4SM SHRA SCT025 BKN035
     FM011600 13005KT P6SM SCT025 BKN050 BKN130
      TEMPO 0116/0117 4SM SHRA
     FM011700 19012KT P6SM VCSH SCT025 SCT150 BKN250
     FM011900 19012KT P6SM BKN035
     FM020000 19008KT P6SM SCT070 BKN250
     FM020300 21006KT P6SM VCSH SCT015 BKN050=



000
FTUS42 KILM 011423 AAB
TAFILM
TAF AMD
KILM 011423Z 0114/0212 18012KT P6SM SCT025 SCT040 BKN080
     FM011700 18012KT P6SM VCSH SCT025 SCT090 SCT130
     FM012200 20008KT P6SM SCT060 SCT100 BKN250=



000
FTUS42 KILM 011422 AAA
TAFFLO
TAF AMD
KFLO 011422Z 0114/0212 16005KT P6SM VCSH SCT025 BKN050 BKN130
      TEMPO 0114/0116 VRB10G15KT 4SM -TSRA BR SCT020CB BKN030
     FM011600 18012KT P6SM VCSH SCT025 SCT150 BKN250
     FM011800 20012KT P6SM BKN035
     FM020000 19008KT P6SM SCT070 BKN250
     FM020500 21006KT P6SM VCSH SCT015 BKN050=



000
FTUS42 KILM 011307 AAA
TAFLBT
TAF AMD
KLBT 011307Z 0113/0212 14006KT P6SM SCT007 BKN015
      TEMPO 0113/0115 SCT025 BKN035
     FM011500 13005KT P6SM SCT025 BKN050 BKN130
      TEMPO 0115/0117 4SM SHRA
     FM011700 19012KT P6SM VCSH SCT025 SCT150 BKN250
     FM011900 19012KT P6SM BKN035
     FM020000 19008KT P6SM SCT070 BKN250
     FM020300 21006KT P6SM VCSH SCT015 BKN050=



000
FTUS42 KILM 011209 CCA
TAFILM
TAF COR
KILM 011209Z 0112/0212 10003KT 6SM BR FEW004 SCT020 BKN130
     FM011330 16005KT P6SM SCT025 SCT050 BKN130
     FM011500 18012KT P6SM SCT025 SCT090 SCT130
     FM020000 20008KT P6SM SCT060 SCT100 BKN250=



000
FTUS42 KILM 011135
TAFFLO
TAF
KFLO 011135Z 0112/0212 13005KT P6SM VCSH SCT025 BKN050 BKN130
      TEMPO 0114/0116 4SM SHRA
     FM011600 18012KT P6SM VCSH SCT025 SCT150 BKN250
     FM011800 20012KT P6SM BKN035
     FM020000 19008KT P6SM SCT070 BKN250
     FM020500 21006KT P6SM VCSH SCT015 BKN050=



000
FTUS42 KILM 011135
TAFMYR
TAF
KMYR 011135Z 0112/0212 17010KT P6SM SCT050 BKN130
     FM011600 18014KT P6SM SCT020 SCT090 SCT130
     FM020000 21008KT P6SM SCT060 SCT100 BKN250=



000
FTUS42 KILM 011135
TAFCRE
TAF
KCRE 011135Z 0112/0212 17010KT P6SM SCT050 BKN130
     FM011600 19014KT P6SM SCT020 SCT090 SCT130
     FM020000 21008KT P6SM SCT060 SCT100 BKN250=



000
FTUS42 KILM 011135
TAFILM
TAF
KILM 011135Z 0112/0212 10003KT 6SM BR FEW004 SCT020 BKN130
      TEMPO 0112/0113 5SM BR
     FM011330 16005KT P6SM SCT025 SCT050 BKN130
     FM011500 18012KT P6SM SCT025 SCT090 SCT130
     FM020000 20008KT P6SM SCT060 SCT100 BKN250=



000
FTUS42 KILM 011135
TAFLBT
TAF
KLBT 011135Z 0112/0212 10004KT 4SM BR OVC005
     FM011500 13005KT P6SM SCT025 BKN050 BKN130
      TEMPO 0115/0117 4SM SHRA
     FM011700 19012KT P6SM VCSH SCT025 SCT150 BKN250
     FM011900 19012KT P6SM BKN035
     FM020000 19008KT P6SM SCT070 BKN250
     FM020300 21006KT P6SM VCSH SCT015 BKN050=



000
FTUS42 KILM 010836 AAB
TAFLBT
TAF AMD
KLBT 010836Z 0109/0206 00000KT 6SM BR OVC005
     FM011500 17010KT P6SM VCSH OVC015
     FM011800 19011KT P6SM OVC050 PROB30 0118/0124 4SM TSRA BKN030CB
     FM020000 18005KT P6SM BKN250=



000
FTUS42 KILM 010836 AAA
TAFFLO
TAF AMD
KFLO 010836Z 0109/0206 09006KT P6SM OVC009
     FM011500 17011KT 5SM -DZ OVC015
     FM011800 20012KT P6SM BKN025 PROB30 0118/0124 3SM TSRA BKN025CB
     FM020000 19008KT P6SM BKN100=



000
FTUS42 KILM 010815 AAB
TAFMYR
TAF AMD
KMYR 010815Z 0108/0206 15005KT P6SM SCT025 BKN035 BKN050
     FM011000 17006KT P6SM OVC008
     FM011500 17010KT P6SM BKN050
     FM011800 18011KT P6SM OVC025
     FM012200 19013KT P6SM VCSH SCT035 BKN050
     FM020000 19009KT P6SM BKN250
      AMD LTD TO CLD VIS AND WIND TIL 011100=



000
FTUS42 KILM 010814 AAB
TAFCRE
TAF AMD
KCRE 010814Z 0108/0206 14004KT P6SM SCT021 SCT045 BKN130
     FM011000 15008KT P6SM OVC006
     FM011500 18012KT P6SM OVC050
     FM012200 20012KT P6SM VCSH SCT035 BKN050
     FM020100 21012KT P6SM BKN250=



000
FTUS42 KILM 010813 AAB
TAFILM
TAF AMD
KILM 010813Z 0108/0206 09007KT P6SM OVC006
     FM011400 15009KT P6SM OVC012
     FM011800 18011G17KT P6SM BKN050
     FM012200 19008KT 6SM SHRA BKN035
     FM020100 20009KT P6SM OVC025=



000
FTUS42 KILM 010738 AAA
TAFLBT
TAF AMD
KLBT 010738Z 0108/0206 09004KT P6SM OVC007
     FM011500 17010KT P6SM VCSH OVC015
     FM011800 19011KT P6SM OVC050 PROB30 0118/0124 4SM TSRA BKN030CB
     FM020000 18005KT P6SM BKN250=



000
FTUS42 KILM 010738 AAA
TAFMYR
TAF AMD
KMYR 010738Z 0108/0206 12006KT P6SM BKN023 OVC029
     FM010900 17006KT P6SM OVC008
     FM011500 17010KT P6SM BKN050
     FM011800 18011KT P6SM OVC025
     FM012200 19013KT P6SM VCSH SCT035 BKN050
     FM020000 19009KT P6SM BKN250
      AMD LTD TO CLD VIS AND WIND TIL 011100=



000
FTUS42 KILM 010737 AAA
TAFILM
TAF AMD
KILM 010737Z 0108/0206 09007KT P6SM OVC006
     FM011200 13009KT P6SM OVC012
     FM011800 18011G17KT P6SM BKN050
     FM012200 19008KT 6SM SHRA BKN035
     FM020100 20009KT P6SM OVC025=



000
FTUS42 KILM 010737 AAA
TAFCRE
TAF AMD
KCRE 010737Z 0108/0206 11005KT P6SM SCT008 BKN022 OVC027
     FM010900 15008KT P6SM OVC006
     FM011500 18012KT P6SM OVC050
     FM012200 20012KT P6SM VCSH SCT035 BKN050
     FM020100 21012KT P6SM BKN250=



000
FTUS42 KILM 010527
TAFLBT
TAF
KLBT 010527Z 0106/0206 11009KT P6SM OVC015
     FM010900 VRB04KT P6SM OVC007
     FM011500 17010KT P6SM VCSH OVC015
     FM011800 19011KT P6SM OVC050 PROB30 0118/0124 4SM TSRA BKN030CB
     FM020000 18005KT P6SM BKN250=



000
FTUS42 KILM 010527
TAFCRE
TAF
KCRE 010527Z 0106/0206 12011KT P6SM OVC007
     FM010900 15008KT P6SM OVC006
     FM011500 18012KT P6SM OVC050
     FM012200 20012KT P6SM VCSH SCT035 BKN050
     FM020100 21012KT P6SM BKN250=



000
FTUS42 KILM 010527
TAFILM
TAF
KILM 010527Z 0106/0206 10008G18KT P6SM OVC009
     FM011200 13011KT P6SM OVC012
     FM011800 18011G17KT P6SM BKN050
     FM012200 19008KT 6SM SHRA BKN035
     FM020100 20009KT P6SM OVC025=



000
FTUS42 KILM 010527
TAFFLO
TAF
KFLO 010527Z 0106/0206 13011KT P6SM OVC012
     FM011500 17011KT 5SM -DZ OVC015
     FM011800 20012KT P6SM BKN025 PROB30 0118/0124 3SM TSRA BKN025CB
     FM020000 19008KT P6SM BKN100=



000
FTUS42 KILM 010527
TAFMYR
TAF
KMYR 010527Z 0106/0206 13011KT P6SM OVC008
     FM011200 17006KT P6SM OVC008
     FM011500 17010KT P6SM BKN050
     FM011800 18011KT P6SM OVC025
     FM012200 19013KT P6SM VCSH SCT035 BKN050
     FM020000 19009KT P6SM BKN250
      AMD LTD TO CLD VIS AND WIND TIL 011100=



000
FTUS42 KILM 010454 AAD
TAFILM
TAF AMD
KILM 010454Z 0105/0124 10009KT P6SM OVC009
     FM011400 16008KT P6SM VCSH SCT007 OVC015
      TEMPO 0117/0120 5SM -SHRA BKN025=



000
FTUS42 KILM 010309 AAC
TAFCRE
TAF AMD
KCRE 010309Z 0103/0124 11010G15KT P6SM SCT010 BKN020
     FM010500 14008KT P6SM SCT005 OVC015
     FM010800 17009KT P6SM VCSH BKN005 OVC010
     FM011300 18012KT P6SM VCSH BKN015 OVC025
      TEMPO 0117/0119 5SM -SHRA BKN025=



000
FTUS42 KILM 010308 AAC
TAFMYR
TAF AMD
KMYR 010308Z 0103/0124 12012KT P6SM SCT005 BKN015
     FM010400 17009KT P6SM VCSH BKN005 OVC010
     FM011300 18013KT P6SM VCSH BKN015 OVC025
      TEMPO 0117/0119 5SM -SHRA BKN025
      AMD LTD TO CLD VIS AND WIND 0104/0111=



000
FTUS42 KILM 010308 AAC
TAFMYR
TAF AMD
KMYR 010308Z 0103/0124 12012KT P6SM SCT005 BKN015
     FM010400 17009KT P6SM VCSH BKN005 OVC010
     FM011300 18013KT P6SM VCSH BKN015 OVC025
      TEMPO 0117/0119 5SM -SHRA BKN025
      AMD LTD TO CLD VIS AND WIND 0104/0111=



000
FTUS42 KILM 010250 AAB
TAFFLO
TAF AMD
KFLO 010250Z 0103/0124 14010KT P6SM BKN015
     FM010500 14006KT P6SM BKN005 OVC012
     FM011300 18009KT P6SM VCSH BKN010 OVC020
      TEMPO 0114/0118 4SM SHRA=



000
FTUS42 KILM 010249 AAB
TAFMYR
TAF AMD
KMYR 010249Z 0103/0124 12012KT P6SM SCT010 BKN025
     FM010800 17009KT P6SM VCSH BKN005 OVC010
     FM011300 18013KT P6SM VCSH BKN015 OVC025
      TEMPO 0117/0119 5SM -SHRA BKN025
      AMD LTD TO CLD VIS AND WIND 0104/0111=



000
FTUS42 KILM 010247 AAB
TAFILM
TAF AMD
KILM 010247Z 0103/0124 09012KT P6SM SCT025 BKN050
     FM010500 12006KT P6SM SCT004 BKN007 OVC012
     FM011400 16008KT P6SM VCSH SCT007 OVC015
      TEMPO 0117/0120 5SM -SHRA BKN025=



000
FTUS42 KILM 010247 AAB
TAFCRE
TAF AMD
KCRE 010247Z 0103/0124 11007KT P6SM SCT020 BKN050
     FM010500 14008KT P6SM SCT005 OVC015
     FM010800 17009KT P6SM VCSH BKN005 OVC010
     FM011300 18012KT P6SM VCSH BKN015 OVC025
      TEMPO 0117/0119 5SM -SHRA BKN025=



000
FTUS42 KILM 010024 CCA
TAFLBT
TAF COR
KLBT 010024Z 0100/0124 10010KT P6SM SCT025 BKN050
     FM010300 11006KT P6SM SCT010 BKN020
     FM010500 12006KT P6SM BKN005 OVC012
     FM011400 18007KT P6SM VCSH BKN010 OVC020
      TEMPO 0114/0118 4SM SHRA=



000
FTUS42 KILM 010024 AAA
TAFLBT
TAF AMD
KLBT 010024Z 0100/0124 10010KT P6SM SCT025 BKN050
     FM010200 11006KT P6SM SCT010 BKN020
     FM010500 12006KT P6SM BKN005 OVC012
     FM011400 18007KT P6SM VCSH BKN010 OVC020
      TEMPO 0114/0118 4SM SHRA=



000
FTUS42 KILM 010024 AAA
TAFLBT
TAF AMD
KLBT 010024Z 0100/0124 10010KT P6SM SCT025 BKN050
     FM010200 11006KT P6SM SCT010 BKN020
     FM010500 12006KT P6SM BKN005 OVC012
     FM011400 18007KT P6SM VCSH BKN010 OVC020
      TEMPO 0114/0118 4SM SHRA=



000
FTUS42 KILM 010024 AAA
TAFFLO
TAF AMD
KFLO 010024Z 0100/0124 13010KT P6SM SCT025 OVC050
     FM010300 13006KT P6SM BKN015
     FM010500 14006KT P6SM BKN005 OVC012
     FM011300 18009KT P6SM VCSH BKN010 OVC020
      TEMPO 0114/0118 4SM SHRA=



000
FTUS42 KILM 010024 AAA
TAFFLO
TAF AMD
KFLO 010024Z 0100/0124 13010KT P6SM SCT025 OVC050
     FM010300 13006KT P6SM BKN015
     FM010500 14006KT P6SM BKN005 OVC012
     FM011300 18009KT P6SM VCSH BKN010 OVC020
      TEMPO 0114/0118 4SM SHRA=



000
FTUS42 KILM 010023 AAA
TAFMYR
TAF AMD
KMYR 010023Z 0100/0124 12009KT P6SM SCT010 OVC040
     FM010300 14008KT P6SM BKN005 OVC015
     FM010800 17009KT P6SM VCSH BKN005 OVC010
     FM011300 18013KT P6SM VCSH BKN015 OVC025
      TEMPO 0117/0119 5SM -SHRA BKN025
      AMD LTD TO CLD VIS AND WIND 0104/0111=



000
FTUS42 KILM 010023 AAA
TAFCRE
TAF AMD
KCRE 010023Z 0100/0124 11007KT P6SM SCT010 OVC035
     FM010500 14008KT P6SM SCT005 OVC015
     FM010800 17009KT P6SM VCSH BKN005 OVC010
     FM011300 18012KT P6SM VCSH BKN015 OVC025
      TEMPO 0117/0119 5SM -SHRA BKN025=



000
FTUS42 KILM 010023 AAA
TAFMYR
TAF AMD
KMYR 010023Z 0100/0124 12009KT P6SM SCT010 OVC040
     FM010300 14008KT P6SM BKN005 OVC015
     FM010800 17009KT P6SM VCSH BKN005 OVC010
     FM011300 18013KT P6SM VCSH BKN015 OVC025
      TEMPO 0117/0119 5SM -SHRA BKN025
      AMD LTD TO CLD VIS AND WIND 0104/0111=



000
FTUS42 KILM 302320
TAFFLO
TAF
KFLO 302320Z 0100/0124 13010KT P6SM BKN025 OVC040
     FM010200 13006KT P6SM BKN015
     FM010500 14006KT P6SM BKN005 OVC012
     FM011300 18009KT P6SM VCSH BKN010 OVC020
      TEMPO 0114/0118 4SM SHRA=



000
FTUS42 KILM 302320
TAFMYR
TAF
KMYR 302320Z 0100/0124 12009KT P6SM SCT010 OVC020
     FM010300 14008KT P6SM BKN005 OVC015
     FM010800 17009KT P6SM VCSH BKN005 OVC010
     FM011300 18013KT P6SM VCSH BKN015 OVC025
      TEMPO 0117/0119 5SM -SHRA BKN025
      AMD LTD TO CLD VIS AND WIND 0104/0111=



000
FTUS42 KILM 302320
TAFILM
TAF
KILM 302320Z 0100/0124 09012KT P6SM BKN015 OVC025
     FM010500 12006KT P6SM SCT004 BKN007 OVC012
     FM011400 16008KT P6SM VCSH SCT007 OVC015
      TEMPO 0117/0120 5SM -SHRA BKN025=



000
FTUS42 KILM 302320
TAFCRE
TAF
KCRE 302320Z 0100/0124 11007KT P6SM SCT010 OVC020
     FM010500 14008KT P6SM SCT005 OVC015
     FM010800 17009KT P6SM VCSH BKN005 OVC010
     FM011300 18012KT P6SM VCSH BKN015 OVC025
      TEMPO 0117/0119 5SM -SHRA BKN025=



000
FTUS42 KILM 302320
TAFLBT
TAF
KLBT 302320Z 0100/0124 10010KT P6SM BKN015 OVC025
     FM010200 11006KT P6SM SCT010 BKN020
     FM010500 12006KT P6SM BKN005 OVC012
     FM011400 18007KT P6SM VCSH BKN010 OVC020
      TEMPO 0114/0118 4SM SHRA=



000
FTUS42 KILM 301730
TAFCRE
TAF
KCRE 301730Z 3018/0118 11014G19KT P6SM SCT025 BKN040
      TEMPO 3019/3023 BKN025
     FM302300 11007KT P6SM SCT010 OVC020
     FM010500 14008KT P6SM SCT005 OVC015
     FM010800 17009KT P6SM VCSH BKN005 OVC010
     FM011300 18012KT P6SM VCSH BKN015 OVC025=



000
FTUS42 KILM 301730
TAFMYR
TAF
KMYR 301730Z 3018/0118 12014G19KT P6SM SCT015 BKN030
      TEMPO 3018/3022 BKN015
     FM302200 12009KT P6SM SCT010 OVC020
     FM010300 14008KT P6SM BKN005 OVC015
     FM010800 17009KT P6SM VCSH BKN005 OVC010
     FM011300 18013KT P6SM VCSH BKN015 OVC025=



000
FTUS42 KILM 301730
TAFFLO
TAF
KFLO 301730Z 3018/0118 13010KT P6SM BKN025 OVC040
      TEMPO 3018/3022 BKN040
     FM010200 13006KT P6SM BKN015
     FM010500 14006KT P6SM BKN005 OVC012
     FM011300 18009KT P6SM VCSH BKN010 OVC020=



000
FTUS42 KILM 301730
TAFILM
TAF
KILM 301730Z 3018/0118 09012KT P6SM BKN015 OVC025
      TEMPO 3019/3023 BKN025 OVC040
     FM010400 12006KT P6SM SCT004 BKN007 OVC012
     FM011400 16008KT P6SM VCSH SCT007 OVC015=



000
FTUS42 KILM 301730
TAFLBT
TAF
KLBT 301730Z 3018/0118 10010KT P6SM BKN015 OVC025
      TEMPO 3018/3022 BKN035
     FM010200 11006KT P6SM SCT010 BKN020
     FM010500 12006KT P6SM BKN005 OVC012
     FM011400 18007KT P6SM VCSH BKN010 OVC020=



000
FTUS42 KILM 301730
TAFMYR
TAF
KMYR 301730Z 3018/0118 12014G19KT P6SM SCT015 BKN030
      TEMPO 3018/3022 BKN015
     FM302200 12009KT P6SM SCT010 OVC020
     FM010300 14008KT P6SM BKN005 OVC015
     FM010800 17009KT P6SM VCSH BKN005 OVC010
     FM011300 18013KT P6SM VCSH BKN015 OVC025=



000
FTUS42 KILM 301730
TAFFLO
TAF
KFLO 301730Z 3018/0118 13010KT P6SM BKN025 OVC040
      TEMPO 3018/3022 BKN040
     FM010200 13006KT P6SM BKN015
     FM010500 14006KT P6SM BKN005 OVC012
     FM011300 18009KT P6SM VCSH BKN010 OVC020=



000
FTUS42 KILM 301619 AAC
TAFMYR
TAF AMD
KMYR 301619Z 3016/0112 09012G17KT P6SM BKN007 OVC020
      TEMPO 3016/3019 SCT007 BKN020
     FM301900 11014G19KT P6SM BKN025 OVC045
      TEMPO 3019/3023 SCT025
     FM010100 12010KT P6SM OVC020
     FM010500 14010KT P6SM SCT005 OVC012
     FM010900 18010KT P6SM VCSH BKN005 OVC010=



000
FTUS42 KILM 301617 AAD
TAFCRE
TAF AMD
KCRE 301617Z 3016/0112 10014G19KT P6SM BKN025
      TEMPO 3016/3019 BKN045
     FM301900 11014G19KT P6SM BKN030 OVC050
      TEMPO 3019/3023 SCT030
     FM010100 12010KT P6SM OVC025
     FM010500 14010KT P6SM SCT005 OVC012
     FM010900 18010KT P6SM VCSH BKN005 OVC010=



000
FTUS42 KILM 301450 AAC
TAFCRE
TAF AMD
KCRE 301450Z 3015/0112 10010G15KT P6SM BKN007 OVC015
      TEMPO 3015/3017 SCT007 BKN015
     FM301700 11011G16KT P6SM BKN015 OVC025
     FM010100 14010KT P6SM OVC015
     FM010500 17010KT P6SM SCT005 OVC010
     FM010900 18010KT P6SM VCSH BKN005 OVC010=



000
FTUS42 KILM 301449 AAB
TAFILM
TAF AMD
KILM 301449Z 3015/0112 09011KT P6SM SCT008 OVC018
     FM301700 10012KT P6SM SCT015 OVC025
     FM010100 11006KT P6SM BKN015 OVC025
     FM010400 11006KT P6SM SCT004 BKN007 OVC012
     FM010900 15006KT P6SM BKN004 OVC007=



000
FTUS42 KILM 301449 AAB
TAFILM
TAF AMD
KILM 301449Z 3015/0112 09011KT P6SM SCT008 OVC018
     FM301700 10012KT P6SM SCT015 OVC025
     FM010100 11006KT P6SM BKN015 OVC025
     FM010400 11006KT P6SM SCT004 BKN007 OVC012
     FM010900 15006KT P6SM BKN004 OVC007=



000
FTUS42 KILM 301444 AAA
TAFLBT
TAF AMD
KLBT 301444Z 3015/0112 10008KT P6SM BKN015 OVC025
     FM301900 11008KT P6SM BKN025 OVC035
     FM010200 11006KT P6SM BKN015 OVC025
     FM010500 13006KT P6SM VCSH OVC006=



000
FTUS42 KILM 301441 AAB
TAFCRE
TAF AMD
KCRE 301441Z 3015/0112 09010G15KT P6SM BKN007 OVC015
     FM301700 11011G16KT P6SM BKN015 OVC025
     FM010100 14010KT P6SM OVC015
     FM010500 17010KT P6SM SCT005 OVC010
     FM010900 18010KT P6SM VCSH BKN005 OVC010=



000
FTUS42 KILM 301441 AAB
TAFCRE
TAF AMD
KCRE 301441Z 3015/0112 09010G15KT P6SM BKN007 OVC015
     FM301700 11011G16KT P6SM BKN015 OVC025
     FM010100 14010KT P6SM OVC015
     FM010500 17010KT P6SM SCT005 OVC010
     FM010900 18010KT P6SM VCSH BKN005 OVC010=



000
FTUS42 KILM 301441 AAB
TAFMYR
TAF AMD
KMYR 301441Z 3015/0112 09012G17KT P6SM BKN007 OVC015
     FM301700 12011G16KT P6SM BKN015 OVC025
     FM010200 13011KT P6SM OVC015
     FM010600 16010KT P6SM SCT004 OVC010
     FM010900 18010KT P6SM VCSH BKN005 OVC010=



000
FTUS42 KILM 301441 AAB
TAFMYR
TAF AMD
KMYR 301441Z 3015/0112 09012G17KT P6SM BKN007 OVC015
     FM301700 12011G16KT P6SM BKN015 OVC025
     FM010200 13011KT P6SM OVC015
     FM010600 16010KT P6SM SCT004 OVC010
     FM010900 18010KT P6SM VCSH BKN005 OVC010=



000
FTUS42 KILM 301440 AAA
TAFFLO
TAF AMD
KFLO 301440Z 3015/0112 12009KT P6SM SCT007 OVC012
     FM301600 12009KT P6SM BKN025
     FM010100 13006KT P6SM BKN015
     FM010500 14006KT P6SM VCSH BKN006 OVC012=



000
FTUS42 KILM 301437 AAA
TAFMYR
TAF AMD
KMYR 301437Z 3015/0112 09012G17KT P6SM BKN007 OVC015
     FM301700 12011G16KT P6SM BKN015 OVC025
     FM010200 13011KT P6SM OVC015
     FM010600 16010KT P6SM SCT004 OVC010
     FM010900 18010KT 6SM BR BKN005 OVC010=



000
FTUS42 KILM 301433 AAA
TAFCRE
TAF AMD
KCRE 301433Z 3015/0112 09010G15KT P6SM BKN007 OVC015
     FM301700 11011G16KT P6SM BKN015 OVC025
     FM010100 14010KT P6SM OVC015
     FM010500 17010KT P6SM SCT005 OVC010
     FM010900 18010KT 5SM BR BKN005 OVC010=



000
FTUS42 KILM 301229 CCB
TAFLBT
TAF COR
KLBT 301229Z 3012/0112 09004KT P6SM SCT007 OVC018
      TEMPO 3013/3015 5SM BR BKN007
     FM301500 11008KT P6SM OVC018
     FM301900 12007KT P6SM BKN035
     FM010100 14006KT P6SM BKN015
     FM010500 14006KT P6SM OVC006=



000
FTUS42 KILM 301225 CCA
TAFCRE
TAF COR
KCRE 301225Z 3012/0112 04005KT P6SM SCT002 BKN018
     FM301600 12008KT P6SM BKN025
     FM010300 14008KT P6SM OVC007
     FM010900 17008KT P6SM BKN012=



000
FTUS42 KILM 301213 CCB
TAFFLO
TAF COR
KFLO 301213Z 3012/0112 10007KT P6SM SCT005 OVC012
      TEMPO 3012/3015 5SM BR BKN005
     FM301500 11008KT P6SM OVC018
     FM301900 12007KT P6SM BKN035
     FM010100 14006KT P6SM BKN015
     FM010500 14006KT P6SM OVC006=



000
FTUS42 KILM 301213 CCB
TAFFLO
TAF COR
KFLO 301213Z 3012/0112 10007KT P6SM SCT005 OVC012
      TEMPO 3012/3015 5SM BR BKN005
     FM301500 11008KT P6SM OVC018
     FM301900 12007KT P6SM BKN035
     FM010100 14006KT P6SM BKN015
     FM010500 14006KT P6SM OVC006=



000
FTUS42 KILM 301127 CCA
TAFMYR
TAF COR
KMYR 301127Z 3012/0112 04005KT 6SM BR SCT006 BKN018
      TEMPO 3012/3014 2SM BR BKN006
     FM301600 11008KT P6SM BKN025
     FM010300 13008KT P6SM OVC007
     FM010900 16009KT P6SM BKN012=



000
FTUS42 KILM 301127 CCA
TAFFLO
TAF COR
KFLO 301127Z 3012/0112 09004KT P6SM OVC010
      TEMPO 3012/3014 5SM BR BKN007
     FM301500 11008KT P6SM OVC018
     FM301900 12007KT P6SM BKN035
     FM010100 14006KT P6SM BKN015
     FM010500 14006KT P6SM OVC006=



000
FTUS42 KILM 301127 CCA
TAFMYR
TAF COR
KMYR 301127Z 3012/0112 04005KT 6SM BR SCT006 BKN018
      TEMPO 3012/3014 2SM BR BKN006
     FM301600 11008KT P6SM BKN025
     FM010300 13008KT P6SM OVC007
     FM010900 16009KT P6SM BKN012=



000
FTUS42 KILM 301127 CCA
TAFFLO
TAF COR
KFLO 301127Z 3012/0112 09004KT P6SM OVC010
      TEMPO 3012/3014 5SM BR BKN007
     FM301500 11008KT P6SM OVC018
     FM301900 12007KT P6SM BKN035
     FM010100 14006KT P6SM BKN015
     FM010500 14006KT P6SM OVC006=



000
FTUS42 KILM 301126 CCA
TAFLBT
TAF COR
KLBT 301126Z 3012/0112 09004KT P6SM SCT007 OVC018
      TEMPO 3012/3014 5SM BR BKN007
     FM301500 11008KT P6SM OVC018
     FM301900 12007KT P6SM BKN035
     FM010100 14006KT P6SM BKN015
     FM010500 14006KT P6SM OVC006=



000
FTUS42 KILM 301126 CCA
TAFLBT
TAF COR
KLBT 301126Z 3012/0112 09004KT P6SM SCT007 OVC018
      TEMPO 3012/3014 5SM BR BKN007
     FM301500 11008KT P6SM OVC018
     FM301900 12007KT P6SM BKN035
     FM010100 14006KT P6SM BKN015
     FM010500 14006KT P6SM OVC006=



000
FTUS42 KILM 301125
TAFLBT
TAF
KLBT 301125Z 3012/0112 09004KT P6SM OVC010
      TEMPO 3012/3014 5SM BR OVC007
     FM301500 11008KT P6SM OVC018
     FM301900 12007KT P6SM BKN035
     FM010100 14006KT P6SM BKN015
     FM010500 14006KT P6SM OVC006=



000
FTUS42 KILM 301125
TAFILM
TAF
KILM 301125Z 3012/0112 05006KT P6SM SCT008 BKN018
     FM301600 10008KT P6SM BKN025
     FM010100 11006KT P6SM OVC012
     FM010300 09004KT 4SM BR OVC007
     FM011000 17005KT P6SM BKN012=



000
FTUS42 KILM 301125
TAFMYR
TAF
KMYR 301125Z 3012/0112 04005KT 6SM BR SCT005 BKN018
      TEMPO 3012/3014 2SM BR BKN005
     FM301600 11008KT P6SM BKN025
     FM010300 13008KT P6SM OVC007
     FM010900 16009KT P6SM BKN012=



000
FTUS42 KILM 301125
TAFCRE
TAF
KCRE 301125Z 3012/0112 04005KT 6SM BR SCT002 BKN018
      TEMPO 3012/3014 2SM BR BKN002
     FM301600 12008KT P6SM BKN025
     FM010300 14008KT P6SM OVC007
     FM010900 17008KT P6SM BKN012=



000
FTUS42 KILM 301125
TAFFLO
TAF
KFLO 301125Z 3012/0112 09004KT P6SM OVC010
      TEMPO 3012/3014 5SM BR OVC007
     FM301500 11008KT P6SM OVC018
     FM301900 12007KT P6SM BKN035
     FM010100 14006KT P6SM BKN015
     FM010500 14006KT P6SM OVC006=



000
FTUS42 KILM 301125
TAFMYR
TAF
KMYR 301125Z 3012/0112 04005KT 6SM BR SCT005 BKN018
      TEMPO 3012/3014 2SM BR BKN005
     FM301600 11008KT P6SM BKN025
     FM010300 13008KT P6SM OVC007
     FM010900 16009KT P6SM BKN012=



000
FTUS42 KILM 301125
TAFFLO
TAF
KFLO 301125Z 3012/0112 09004KT P6SM OVC010
      TEMPO 3012/3014 5SM BR OVC007
     FM301500 11008KT P6SM OVC018
     FM301900 12007KT P6SM BKN035
     FM010100 14006KT P6SM BKN015
     FM010500 14006KT P6SM OVC006=



000
FTUS42 KILM 301125
TAFCRE
TAF
KCRE 301125Z 3012/0112 04005KT 6SM BR SCT002 BKN018
      TEMPO 3012/3014 2SM BR BKN002
     FM301600 12008KT P6SM BKN025
     FM010300 14008KT P6SM OVC007
     FM010900 17008KT P6SM BKN012=



000
FTUS42 KILM 301125
TAFILM
TAF
KILM 301125Z 3012/0112 05006KT P6SM SCT008 BKN018
     FM301600 10008KT P6SM BKN025
     FM010100 11006KT P6SM OVC012
     FM010300 09004KT 4SM BR OVC007
     FM011000 17005KT P6SM BKN012=



000
FTUS42 KILM 301125
TAFLBT
TAF
KLBT 301125Z 3012/0112 09004KT P6SM OVC010
      TEMPO 3012/3014 5SM BR OVC007
     FM301500 11008KT P6SM OVC018
     FM301900 12007KT P6SM BKN035
     FM010100 14006KT P6SM BKN015
     FM010500 14006KT P6SM OVC006=



000
FTUS42 KILM 300817 AAB
TAFILM
TAF AMD
KILM 300817Z 3008/0106 04008KT P6SM SKC
     FM300900 05006KT 6SM BR BKN011
     FM301600 10008KT P6SM BKN030
     FM010100 11006KT P6SM OVC012
     FM010300 09006KT P6SM OVC007=



000
FTUS42 KILM 300816 AAA
TAFCRE
TAF AMD
KCRE 300816Z 3008/0106 00000KT 3/4SM BR BKN004
     FM301500 12008KT P6SM OVC025
     FM010300 14010KT P6SM OVC007=



000
FTUS42 KILM 300816 AAA
TAFLBT
TAF AMD
KLBT 300816Z 3008/0106 00000KT 5SM BR BKN009
     FM301500 09006KT 4SM -DZ OVC012
     FM302100 10006KT P6SM BKN050
     FM010000 10007KT P6SM OVC025
     FM010300 09005KT P6SM OVC007=



000
FTUS42 KILM 300559 CCA
TAFLBT
TAF COR
KLBT 300559Z 3006/0106 16006KT P6SM SKC
     FM300700 09004KT 4SM BR OVC007
     FM301500 09006KT 4SM -DZ OVC012
     FM302100 10006KT P6SM BKN050
     FM010000 10007KT P6SM OVC025
     FM010300 09005KT P6SM OVC007=



000
FTUS42 KILM 300559 CCB
TAFILM
TAF COR
KILM 300559Z 3006/0106 14004KT P6SM SKC
     FM300800 08005KT 5SM BR OVC005
     FM301400 07007KT P6SM BKN012
     FM301600 10008KT P6SM BKN030
     FM010100 11006KT P6SM OVC012
     FM010300 09006KT P6SM OVC007=



000
FTUS42 KILM 300532 CCA
TAFFLO
TAF COR
KFLO 300532Z 3006/0106 14004KT P6SM BKN006
     FM301000 09004KT 4SM BR OVC004
     FM301500 11008KT 4SM -DZ OVC013
     FM301800 12007KT P6SM VCSH BKN050
     FM010000 14006KT P6SM OVC007=



000
FTUS42 KILM 300520
TAFMYR
TAF
KMYR 300520Z 3006/0106 13005KT P6SM BKN300
     FM301200 09005KT 5SM BR BKN007
     FM301500 13011KT P6SM BKN025
     FM010300 12014KT P6SM OVC007
      AMD LTD TO CLD VIS AND WIND TIL 301100=



000
FTUS42 KILM 300520
TAFMYR
TAF
KMYR 300520Z 3006/0106 13005KT P6SM BKN300
     FM301200 09005KT 5SM BR BKN007
     FM301500 13011KT P6SM BKN025
     FM010300 12014KT P6SM OVC007
      AMD LTD TO CLD VIS AND WIND TIL 301100=



000
FTUS42 KILM 300520
TAFILM
TAF
KILM 300520Z 3006/0106 14004KT P6SM SKC
     FM301000 08005KT 5SM BR OVC005
     FM301400 07007KT P6SM BKN012
     FM301600 10008KT P6SM BKN030
     FM010100 11006KT P6SM OVC012
     FM010300 09006KT P6SM OVC007=



000
FTUS42 KILM 300520
TAFCRE
TAF
KCRE 300520Z 3006/0106 15004KT P6SM BKN300
     FM301100 09006KT 4SM BR OVC007
     FM301500 12008KT P6SM OVC025
     FM010300 14010KT P6SM OVC007=



000
FTUS42 KILM 300520
TAFLBT
TAF
KLBT 300520Z 3006/0106 16006KT P6SM SKC
     FM300900 09004KT 4SM BR OVC007
     FM301500 09006KT 4SM -DZ OVC012
     FM302100 10006KT P6SM BKN050
     FM010000 10007KT P6SM OVC025
     FM010300 09005KT P6SM OVC007=



000
FTUS42 KILM 300520
TAFFLO
TAF
KFLO 300520Z 3006/0106 16003KT P6SM SKC
     FM301000 09004KT 4SM BR OVC004
     FM301500 11008KT 4SM -DZ OVC013
     FM301800 12007KT P6SM VCSH BKN050
     FM010000 14006KT P6SM OVC007=



000
FTUS42 KILM 292320
TAFILM
TAF
KILM 292320Z 3000/3024 09003KT P6SM SKC
     FM300900 19003KT 4SM BR OVC004
     FM301400 07006KT P6SM SCT010 BKN025
     FM301500 09006KT P6SM BKN050=



000
FTUS42 KILM 292320
TAFLBT
TAF
KLBT 292320Z 3000/3024 VRB02KT P6SM FEW050 SCT250
     FM300800 VRB02KT 4SM BR SCT250
     FM301000 09003KT 2SM BR OVC001
     FM301400 09004KT P6SM OVC004
     FM301500 08004KT P6SM SCT010 BKN250=



000
FTUS42 KILM 292320
TAFFLO
TAF
KFLO 292320Z 3000/3024 14003KT P6SM FEW050 SCT250
     FM300600 17002KT 4SM BR SCT250
     FM300800 00000KT 1 1/2SM BR SCT250
     FM301000 11002KT 1/4SM FG BKN001
     FM301400 12006KT P6SM OVC004
     FM301500 12004KT P6SM SCT010 BKN250=



000
FTUS42 KILM 292320
TAFCRE
TAF
KCRE 292320Z 3000/3024 15004KT 6SM HZ SCT250
     FM300600 18004KT 4SM BR SCT250
     FM300900 12003KT 2SM BR BKN004
     FM301200 08003KT 1SM BR BKN001
     FM301400 12007KT P6SM SCT020 SCT250=



000
FTUS42 KILM 292320
TAFMYR
TAF
KMYR 292320Z 3000/3024 13009KT P6SM FEW250
     FM300600 13002KT 5SM BR SCT250
     FM300900 18004KT 4SM BR BKN001
     FM301400 12007KT P6SM SCT020 SCT250
      AMD LTD TO CLD VIS AND WIND 3004/3011=



000
FTUS42 KILM 291731
TAFFLO
TAF
KFLO 291731Z 2918/3018 VRB05KT P6SM SCT040
     FM292300 14003KT P6SM FEW050 SCT250
     FM300600 17002KT 4SM BR SCT250
     FM300800 00000KT 1 1/2SM BR SCT250
     FM301000 11002KT 1/4SM FG BKN001
     FM301400 12006KT P6SM OVC004
     FM301500 12004KT P6SM SCT010 BKN250=



000
FTUS42 KILM 291731
TAFMYR
TAF
KMYR 291731Z 2918/3018 04012KT P6SM FEW035
     FM292000 13009KT P6SM FEW250
     FM300600 13002KT 5SM BR SCT250
     FM300900 18004KT 4SM BR BKN001
     FM301400 12007KT P6SM SCT020 SCT250=



000
FTUS42 KILM 291731
TAFCRE
TAF
KCRE 291731Z 2918/3018 05006KT P6SM FEW030
     FM292000 14008KT P6SM FEW250
     FM300000 15004KT 6SM HZ SCT250
     FM300600 18004KT 4SM BR SCT250
     FM300900 12003KT 2SM BR BKN004
     FM301200 08003KT 1SM BR BKN001
     FM301400 12007KT P6SM SCT020 SCT250=



000
FTUS42 KILM 291731
TAFILM
TAF
KILM 291731Z 2918/3018 06012KT P6SM SCT030
     FM300000 09003KT P6SM SKC
     FM300900 19003KT 4SM BR OVC004
     FM301400 07006KT P6SM SCT010 BKN025
     FM301500 09006KT P6SM BKN050=



000
FTUS42 KILM 291731
TAFLBT
TAF
KLBT 291731Z 2918/3018 01010KT P6SM SCT040
     FM292300 VRB02KT P6SM FEW050 SCT250
     FM300800 VRB02KT 4SM BR SCT250
     FM301000 09003KT 2SM BR OVC001
     FM301400 09004KT P6SM OVC004
     FM301500 08004KT P6SM SCT010 BKN250=



000
FTUS42 KILM 291359 AAA
TAFCRE
TAF AMD
KCRE 291359Z 2914/3012 35008KT P6SM SCT015
     FM291500 02007KT P6SM SCT045
     FM291800 15008KT P6SM SKC
     FM300100 17003KT P6SM SKC=



000
FTUS42 KILM 291358 AAB
TAFILM
TAF AMD
KILM 291358Z 2914/3012 34010KT P6SM SCT015
      TEMPO 2914/2915 SCT005 BKN015
     FM291500 02008KT P6SM SCT045
     FM300000 16003KT P6SM SKC=



000
FTUS42 KILM 291357 AAA
TAFMYR
TAF AMD
KMYR 291357Z 2914/3012 32008KT P6SM SCT045
     FM291800 14010KT P6SM SKC
     FM300200 15003KT P6SM SKC=



000
FTUS42 KILM 291356 AAA
TAFFLO
TAF AMD
KFLO 291356Z 2914/3012 01008KT P6SM SCT045
     FM292300 VRB02KT P6SM SKC=



000
FTUS42 KILM 291319 CCD
TAFLBT
TAF COR
KLBT 291319Z 2913/3012 35007KT P6SM BKN010
     FM291400 36006KT P6SM SCT045
     FM292300 VRB02KT P6SM SKC=



000
FTUS42 KILM 291319 CCD
TAFLBT
TAF COR
KLBT 291319Z 2913/3012 35007KT P6SM BKN010
     FM291400 36006KT P6SM SCT045
     FM292300 VRB02KT P6SM SKC=



000
FTUS42 KILM 291318 AAA
TAFLBT
TAF AMD
KLBT 291318Z 2913/3012 35007KT 5SM BR BKN010
     FM291400 36006KT P6SM SCT045
     FM292300 VRB02KT P6SM SKC=



000
FTUS42 KILM 291318 AAA
TAFLBT
TAF AMD
KLBT 291318Z 2913/3012 35007KT 5SM BR BKN010
     FM291400 36006KT P6SM SCT045
     FM292300 VRB02KT P6SM SKC=



000
FTUS42 KILM 291226 CCD
TAFILM
TAF COR
KILM 291226Z 2912/3012 32004KT P6SM SCT015
      TEMPO 2913/2915 4SM BR BKN008
     FM291500 02007KT P6SM SCT045
     FM300000 16003KT P6SM SKC=



000
FTUS42 KILM 291212 CCB
TAFLBT
TAF COR
KLBT 291212Z 2912/3012 35007KT 5SM BR BKN005
     FM291430 36006KT P6SM SCT045
     FM292300 VRB02KT P6SM SKC=



000
FTUS42 KILM 291212 CCB
TAFLBT
TAF COR
KLBT 291212Z 2912/3012 35007KT 5SM BR BKN005
     FM291430 36006KT P6SM SCT045
     FM292300 VRB02KT P6SM SKC=



000
FTUS42 KILM 291212 CCC
TAFLBT
TAF COR
KLBT 291212Z 2912/3012 35007KT 6SM BR BKN005
     FM291430 36006KT P6SM SCT045
     FM292300 VRB02KT P6SM SKC=



000
FTUS42 KILM 291212 CCC
TAFLBT
TAF COR
KLBT 291212Z 2912/3012 35007KT 6SM BR BKN005
     FM291430 36006KT P6SM SCT045
     FM292300 VRB02KT P6SM SKC=



000
FTUS42 KILM 291204 CCA
TAFMYR
TAF COR
KMYR 291204Z 2912/3012 30007KT P6SM FEW015
      TEMPO 2913/2914 BKN005
     FM291400 01008KT P6SM SCT045
     FM291800 14010KT P6SM SKC
     FM300200 15003KT P6SM SKC=



000
FTUS42 KILM 291200 CCA
TAFCRE
TAF COR
KCRE 291200Z 2912/3012 36005KT 5SM BR BKN004
     FM291300 01006KT P6SM SCT015
     FM291500 02007KT P6SM SCT045
     FM291800 15008KT P6SM SKC
     FM300100 17003KT P6SM SKC=



000
FTUS42 KILM 291200 CCA
TAFCRE
TAF COR
KCRE 291200Z 2912/3012 36005KT 5SM BR BKN004
     FM291300 01006KT P6SM SCT015
     FM291500 02007KT P6SM SCT045
     FM291800 15008KT P6SM SKC
     FM300100 17003KT P6SM SKC=



000
FTUS42 KILM 291156 CCA
TAFLBT
TAF COR
KLBT 291156Z 2912/3012 35007KT 5SM BR BKN003
     FM291430 36006KT P6SM SCT045
     FM292300 VRB02KT P6SM SKC=



000
FTUS42 KILM 291156 CCA
TAFLBT
TAF COR
KLBT 291156Z 2912/3012 35007KT 5SM BR BKN003
     FM291430 36006KT P6SM SCT045
     FM292300 VRB02KT P6SM SKC=



000
FTUS42 KILM 291155 CCA
TAFFLO
TAF COR
KFLO 291155Z 2912/3012 35006KT 6SM BR BKN005
     FM291430 01008KT P6SM SCT045
     FM292300 VRB02KT P6SM SKC=



000
FTUS42 KILM 291128 CCA
TAFILM
TAF COR
KILM 291128Z 2912/3012 32004KT P6SM SCT015
      TEMPO 2913/2915 4SM BR BKN010
     FM291500 02007KT P6SM SCT045
     FM300000 16003KT P6SM SKC=



000
FTUS42 KILM 291125
TAFMYR
TAF
KMYR 291125Z 2912/3012 35004KT P6SM SCT015
     FM291500 02007KT P6SM SCT045
     FM291800 14010KT P6SM SKC
     FM300200 15003KT P6SM SKC=



000
FTUS42 KILM 291125
TAFCRE
TAF
KCRE 291125Z 2912/3012 35004KT P6SM SCT015
     FM291500 02007KT P6SM SCT045
     FM291800 15008KT P6SM SKC
     FM300100 17003KT P6SM SKC=



000
FTUS42 KILM 291125
TAFILM
TAF
KILM 291125Z 2912/3012 32004KT P6SM SCT015
      TEMPO 2913/2915 BKN010
     FM291500 02007KT P6SM SCT045
     FM300000 16003KT P6SM SKC=



000
FTUS42 KILM 291125
TAFFLO
TAF
KFLO 291125Z 2912/3012 36008KT 6SM BR BKN005
     FM291500 01008KT P6SM SCT045
     FM292300 VRB02KT P6SM SKC=



000
FTUS42 KILM 291125
TAFLBT
TAF
KLBT 291125Z 2912/3012 01008KT 5SM BR BKN004
     FM291500 36006KT P6SM SCT045
     FM292300 VRB02KT P6SM SKC=



000
FTUS42 KILM 291125
TAFILM
TAF
KILM 291125Z 2912/3012 32004KT P6SM SCT015
      TEMPO 2913/2915 BKN010
     FM291500 02007KT P6SM SCT045
     FM300000 16003KT P6SM SKC=



000
FTUS42 KILM 291125
TAFCRE
TAF
KCRE 291125Z 2912/3012 35004KT P6SM SCT015
     FM291500 02007KT P6SM SCT045
     FM291800 15008KT P6SM SKC
     FM300100 17003KT P6SM SKC=



000
FTUS42 KILM 291125
TAFMYR
TAF
KMYR 291125Z 2912/3012 35004KT P6SM SCT015
     FM291500 02007KT P6SM SCT045
     FM291800 14010KT P6SM SKC
     FM300200 15003KT P6SM SKC=



000
FTUS42 KILM 291125
TAFFLO
TAF
KFLO 291125Z 2912/3012 36008KT 6SM BR BKN005
     FM291500 01008KT P6SM SCT045
     FM292300 VRB02KT P6SM SKC=



000
FTUS42 KILM 291125
TAFLBT
TAF
KLBT 291125Z 2912/3012 01008KT 5SM BR BKN004
     FM291500 36006KT P6SM SCT045
     FM292300 VRB02KT P6SM SKC=



000
FTUS42 KILM 290953 AAB
TAFFLO
TAF AMD
KFLO 290953Z 2910/3006 28003KT P6SM SCT015
     FM291200 32008KT P6SM BKN012
      TEMPO 2912/2914 BKN008
     FM291800 33007KT P6SM SCT045
     FM292300 VRB02KT P6SM SKC=



000
FTUS42 KILM 290950 CCA
TAFLBT
TAF COR
KLBT 290950Z 2910/3006 02004KT 6SM BR BKN012 OVC200
      TEMPO 2910/2914 3SM BR BKN007
     FM291900 33007KT P6SM SCT050
     FM292300 VRB02KT P6SM SKC=



000
FTUS42 KILM 290945 AAA
TAFMYR
TAF AMD
KMYR 290945Z 2910/3006 26005KT P6SM SCT015
      TEMPO 2911/2913 BKN010
     FM291300 35007KT P6SM BKN010
      TEMPO 2913/2915 3SM BR BKN009
     FM291800 16010KT P6SM SKC
     FM300000 13004KT P6SM SKC
      AMD LTD TO CLD VIS AND WIND TIL 291100=



000
FTUS42 KILM 290945 AAA
TAFCRE
TAF AMD
KCRE 290945Z 2910/3006 25004KT P6SM SCT015
      TEMPO 2911/2912 BKN010
     FM291300 35007KT P6SM BKN010
      TEMPO 2913/2915 3SM BR BKN009
     FM291800 15010KT P6SM SKC
     FM300000 12004KT P6SM SKC=



000
FTUS42 KILM 290941 AAC
TAFILM
TAF AMD
KILM 290941Z 2910/3006 25005KT P6SM SCT012
     FM291200 35007KT P6SM BKN010
      TEMPO 2912/2914 3SM BR BKN007
     FM291900 04007KT P6SM SCT045
     FM300000 12004KT P6SM SKC=



000
FTUS42 KILM 290932 AAB
TAFLBT
TAF AMD
KLBT 290932Z 2910/3006 28003KT 5SM BR BKN012 OVC200
      TEMPO 2910/2912 00000KT 2SM BR BKN250
     FM291300 33007KT P6SM SCT050
     FM292300 VRB02KT P6SM SKC=



000
FTUS42 KILM 290824 AAB
TAFILM
TAF AMD
KILM 290824Z 2908/3006 30004KT 5SM BR BKN012
      TEMPO 2909/2912 00000KT 2SM BR SCT012 BKN250
     FM291300 33008KT P6SM SCT045
     FM291930 14010KT P6SM SKC
     FM300000 11003KT P6SM SKC=



000
FTUS42 KILM 290823 AAA
TAFFLO
TAF AMD
KFLO 290823Z 2908/3006 28003KT 5SM BR BKN250
      TEMPO 2909/2912 00000KT 2SM BR
     FM291300 32008KT P6SM SCT050
     FM292300 VRB02KT P6SM SKC=



000
FTUS42 KILM 290821 AAA
TAFLBT
TAF AMD
KLBT 290821Z 2908/3006 28003KT 5SM BR SCT120 BKN200
      TEMPO 2909/2912 00000KT 2SM BR BKN250
     FM291300 33007KT P6SM SCT050
     FM292300 VRB02KT P6SM SKC=



000
FTUS42 KILM 290520
TAFFLO
TAF
KFLO 290520Z 2906/3006 23006KT P6SM SCT050
     FM290800 26003KT 5SM BR SCT004 BKN250
     FM291300 32008KT P6SM SCT050
     FM292300 VRB02KT P6SM SKC=



000
FTUS42 KILM 290520
TAFILM
TAF
KILM 290520Z 2906/3006 23007KT P6SM SCT030 BKN120
     FM290900 26004KT 4SM BR SCT006 BKN250
     FM291300 33008KT P6SM SCT045
     FM291930 14010KT P6SM SKC
     FM300000 11003KT P6SM SKC=



000
FTUS42 KILM 290520
TAFLBT
TAF
KLBT 290520Z 2906/3006 22005KT P6SM VCSH SCT050 BKN100
     FM290700 28003KT 4SM BR SCT120 BKN200
      TEMPO 2908/2912 00000KT 1SM BR BKN250
     FM291300 33007KT P6SM SCT050
     FM292300 VRB02KT P6SM SKC=



000
FTUS42 KILM 290520
TAFCRE
TAF
KCRE 290520Z 2906/3006 23009KT P6SM SCT025 BKN150
     FM291000 27003KT 4SM BR SCT005 BKN250
     FM291300 33005KT P6SM SCT040
     FM291800 15010KT P6SM SKC
     FM300000 12004KT P6SM SKC=



000
FTUS42 KILM 290520
TAFMYR
TAF
KMYR 290520Z 2906/3006 23009KT P6SM SCT025 BKN150
     FM291000 27003KT 5SM BR BKN250
     FM291300 33006KT P6SM SCT040
     FM291800 16010KT P6SM SKC
     FM300000 13004KT P6SM SKC
      AMD LTD TO CLD VIS AND WIND TIL 291100=



000
FTUS42 KILM 290406 AAB
TAFLBT
TAF AMD
KLBT 290406Z 2904/2924 20008KT P6SM VCTS FEW035CB BKN080
     FM290700 23005KT 3SM BR SCT120 BKN250
     FM291200 33009KT P6SM FEW040=



000
FTUS42 KILM 290218 AAA
TAFLBT
TAF AMD
KLBT 290218Z 2902/2924 21010G15KT P6SM SCT040
     FM290300 23006KT P6SM VCTS SCT050CB BKN110
     FM290600 24005KT 5SM BR FEW002
     FM291200 33009KT P6SM FEW040=



000
FTUS42 KILM 290218 AAA
TAFLBT
TAF AMD
KLBT 290218Z 2902/2924 21010G15KT P6SM SCT040
     FM290300 23006KT P6SM VCTS SCT050CB BKN110
     FM290600 24005KT 5SM BR FEW002
     FM291200 33009KT P6SM FEW040=



000
FTUS42 KILM 282320
TAFILM
TAF
KILM 282320Z 2900/2924 23011G17KT P6SM SCT030 SCT120
     FM290300 23012KT P6SM VCSH SCT015 BKN040 BKN080
      TEMPO 2906/2908 30020G30KT 2SM TSRA BKN030CB
     FM290800 27008KT P6SM FEW030 SCT150
     FM291200 30010KT P6SM FEW040=



000
FTUS42 KILM 282320
TAFFLO
TAF
KFLO 282320Z 2900/2924 22010G16KT P6SM SCT040
     FM290200 23006KT P6SM FEW060
     FM290800 25004KT 6SM BR FEW002 SCT070
     FM291200 32009KT P6SM FEW050=



000
FTUS42 KILM 282320
TAFCRE
TAF
KCRE 282320Z 2900/2924 21010G18KT P6SM SCT030 SCT110
     FM290200 23008KT P6SM SCT030 BKN100
     FM290900 28007KT P6SM FEW030 FEW100
     FM291300 32010KT P6SM FEW040=



000
FTUS42 KILM 282320
TAFLBT
TAF
KLBT 282320Z 2900/2924 21010G15KT P6SM SCT040
     FM290200 23006KT P6SM VCTS SCT050CB BKN110
      TEMPO 2904/2906 29015G25KT 3SM TSRA BKN035CB
     FM290800 24005KT 5SM BR FEW002
     FM291200 33009KT P6SM FEW040=



000
FTUS42 KILM 282320
TAFMYR
TAF
KMYR 282320Z 2900/2924 20010G18KT P6SM SCT030 SCT110
     FM290200 22009KT P6SM SCT030 BKN100
     FM290900 28006KT P6SM FEW030 FEW100
     FM291300 32010KT P6SM FEW040
      AMD LTD TO CLD VIS AND WIND 2904/2911=



    US Dept of Commerce
    National Oceanic and Atmospheric Administration
    National Weather Service
    1325 East West Highway
    Silver Spring, MD 20910
    Page Author: NWS Internet Services Team
Disclaimer
Information Quality
Credits
Glossary
Privacy Policy
Freedom of Information Act (FOIA)
About Us
Career Opportunities